Pagrindinis puslapis
METAR-TAF:

METAR-TAF

Oro uostai :

Manokotak, Aliaska, Jungtinės Amerikos Valstijos

platuma: 58-59-19N, ilguma: 159-02-56W, Aukštis: 16 m

Dabartinis oras

Ataskaita buvo paskelbta 1 valandą ir 4 minutes, ne 20:56 UTC
Vėjas 7 kt iš Pietvakarių
Temperatūra 10°C
Drėgmė 62%
Slėgis 1005 hPa
Matomumas: 16.1 km
Mažai debesys ne aukštis 4200 ft
Išsisklaidę debesys ne aukštis 4900 ft

METAR: PAMB 212056Z AUTO 22007KT 10SM FEW042 SCT049 10/03 A2969 RMK AO2 SLP062 T01000028 58005 $

Laikas: 14:00 (22:00 UTC)


TAF: trūkstamas

Orai ataskaitas ir orų prognozės (METAR, TAF).

turimą stotys yra geltonos ir raudonos taškus žemėlapyje.

Perkelti pele per norėdami pamatyti stoties vardą.

Tada spustelėkite, norėdami matyti oro stebėjimo ir prognozės.

Norėdami pakeisti žemėlapį: spustelėkite ant žalios mygtukų su juodo kryžiaus žemyn,; žalią mygtuką su brūkšneliu, jei norite nutolinti; arba žalių rodyklių gretimoms žemėlapius.


METAR-TAF: